Time;durP1;ratioP1;P1;durP2;ratioP2;P2;SDS_P1;SDS_P2;PMS_P1;PMS_P2;Temp;Humidity;BMP_temperature;BMP_pressure;BME280_temperature;BME280_humidity;BME280_pressure;Samples;Min_cycle;Max_cycle;Signal;HPM_P1;HPM_P2
2022/04/18 00:01:44;;;;;;;;;;;;;;;6.17;43.69;96746.91;4894170;29;19994;-72
2022/04/18 00:04:10;;;;;;;;;;;;;;;6.16;43.56;96756.53;4891870;29;20020;-72
2022/04/18 00:06:36;;;;;;;;;;;;;;;6.14;43.83;96747.28;4891844;29;20004;-72
2022/04/18 00:09:02;;;;;;;;;;;;;;;6.11;43.66;96743.25;4892504;29;20417;-72
2022/04/18 00:11:37;;;;;;;;;;;;;;;6.07;44.05;96740.19;4884664;29;19961;-72
2022/04/18 00:14:03;;;;;;;;;;;;;;;6.04;43.64;96734.53;4895231;29;19956;-72
2022/04/18 00:16:29;;;;;;;;;;;;;;;6.01;44.29;96737.53;4891514;29;20153;-72
2022/04/18 00:18:55;;;;;;;;;;;;;;;5.97;44.28;96737.06;4888644;29;20023;-72
2022/04/18 00:21:21;;;;;;;;;;;;;;;5.94;44.75;96734.78;4891998;29;20342;-72
2022/04/18 00:23:47;;;;;;;;;;;;;;;5.88;44.49;96730.31;4876839;29;19954;-72
2022/04/18 00:26:13;;;;;;;;;;;;;;;5.83;45.02;96728.25;4884075;29;19955;-73
2022/04/18 00:28:39;;;;;;;;;;;;;;;5.78;45.17;96728.00;4892443;29;20012;-74
2022/04/18 00:31:05;;;;;;;;;;;;;;;5.75;45.41;96724.94;4893634;29;19965;-74
2022/04/18 00:33:31;;;;;;;;;;;;;;;5.74;44.89;96723.34;4893320;29;20007;-74
2022/04/18 00:35:57;;;;;;;;;;;;;;;5.72;45.73;96725.31;4889339;29;20291;-74
2022/04/18 00:38:23;;;;;;;;;;;;;;;5.70;44.88;96717.66;4894641;29;19984;-74
2022/04/18 00:40:49;;;;;;;;;;;;;;;5.66;45.43;96725.03;4888668;29;19962;-73
2022/04/18 00:43:15;;;;;;;;;;;;;;;5.64;45.10;96724.41;4889745;29;19962;-74
2022/04/18 00:45:41;;;;;;;;;;;;;;;5.62;45.43;96725.56;4890006;29;19953;-74
2022/04/18 00:48:07;;;;;;;;;;;;;;;5.58;46.17;96721.72;4894468;29;20079;-74
2022/04/18 00:50:34;;;;;;;;;;;;;;;5.55;45.54;96712.47;4889294;29;20012;-73
2022/04/18 00:53:00;;;;;;;;;;;;;;;5.49;45.46;96710.59;4886189;29;19981;-73
2022/04/18 00:55:27;;;;;;;;;;;;;;;5.45;45.59;96717.94;4890077;29;19955;-73
2022/04/18 00:57:54;;;;;;;;;;;;;;;5.41;46.31;96718.47;4893378;29;19961;-73
2022/04/18 01:00:20;;;;;;;;;;;;;;;5.35;45.80;96699.19;4886388;29;19988;-74
2022/04/18 01:02:46;;;;;;;;;;;;;;;5.34;46.00;96701.97;4889094;29;19948;-73
2022/04/18 01:05:12;;;;;;;;;;;;;;;5.33;46.14;96702.94;4871414;29;19978;-73
2022/04/18 01:07:38;;;;;;;;;;;;;;;5.31;45.69;96699.72;4894273;29;20025;-73
2022/04/18 01:10:05;;;;;;;;;;;;;;;5.26;46.27;96695.84;4872817;29;19962;-74
2022/04/18 01:12:31;;;;;;;;;;;;;;;5.24;46.75;96700.44;4888427;29;19958;-73
2022/04/18 01:14:58;;;;;;;;;;;;;;;5.21;46.42;96692.19;4883293;29;19955;-73
2022/04/18 01:17:25;;;;;;;;;;;;;;;5.20;46.43;96690.56;4891696;29;20412;-73
2022/04/18 01:19:50;;;;;;;;;;;;;;;5.18;46.59;96688.13;4895559;29;19975;-73
2022/04/18 01:22:18;;;;;;;;;;;;;;;5.16;47.06;96686.69;4886124;29;20047;-73
2022/04/18 01:30:14;;;;;;;;;;;;;;;5.02;47.23;96686.50;4894268;29;19956;-75
2022/04/18 01:32:40;;;;;;;;;;;;;;;4.96;47.35;96678.63;4890896;29;20350;-73
2022/04/18 01:35:06;;;;;;;;;;;;;;;4.91;47.33;96675.72;4883746;29;19951;-73
2022/04/18 01:37:32;;;;;;;;;;;;;;;4.89;47.69;96678.50;4891369;29;19960;-73
2022/04/18 01:39:58;;;;;;;;;;;;;;;4.86;47.21;96678.84;4895515;29;19969;-73
2022/04/18 01:42:24;;;;;;;;;;;;;;;4.84;47.71;96676.44;4887872;29;19955;-73
2022/04/18 01:44:51;;;;;;;;;;;;;;;4.83;47.69;96680.03;4889822;29;19962;-72
2022/04/18 01:47:17;;;;;;;;;;;;;;;4.81;47.87;96683.78;4888415;29;20330;-73
2022/04/18 01:49:43;;;;;;;;;;;;;;;4.81;47.66;96681.19;4893861;29;19957;-73
2022/04/18 01:52:09;;;;;;;;;;;;;;;4.81;47.88;96676.78;4892737;29;19964;-73
2022/04/18 01:54:35;;;;;;;;;;;;;;;4.82;48.12;96669.78;4885001;29;20006;-73
2022/04/18 01:57:01;;;;;;;;;;;;;;;4.82;47.46;96664.59;4887167;29;19961;-73
2022/04/18 01:59:26;;;;;;;;;;;;;;;4.80;47.89;96667.38;4888403;29;20005;-73
2022/04/18 02:01:52;;;;;;;;;;;;;;;4.78;48.41;96665.94;4888599;29;19976;-73
2022/04/18 02:04:18;;;;;;;;;;;;;;;4.77;47.89;96664.34;4871442;29;19958;-72
2022/04/18 02:06:44;;;;;;;;;;;;;;;4.75;47.98;96661.91;4887471;29;20038;-73
2022/04/18 02:09:10;;;;;;;;;;;;;;;4.75;48.09;96661.91;4889656;29;19964;-73
2022/04/18 02:11:36;;;;;;;;;;;;;;;4.76;48.52;96657.50;4887758;29;20402;-72
2022/04/18 02:14:01;;;;;;;;;;;;;;;4.74;47.75;96659.47;4886496;29;20491;-73
2022/04/18 02:16:28;;;;;;;;;;;;;;;4.72;48.37;96658.84;4876064;29;20322;-72
2022/04/18 02:18:54;;;;;;;;;;;;;;;4.70;47.98;96653.00;4891393;29;20049;-73
2022/04/18 02:21:20;;;;;;;;;;;;;;;4.66;48.51;96644.75;4889650;29;20422;-73
2022/04/18 02:23:46;;;;;;;;;;;;;;;4.65;47.98;96645.75;4888945;29;20031;-73
2022/04/18 02:26:12;;;;;;;;;;;;;;;4.61;48.34;96647.88;4888787;29;20041;-73
2022/04/18 02:28:38;;;;;;;;;;;;;;;4.58;48.65;96650.84;4889861;29;19966;-72
2022/04/18 02:31:04;;;;;;;;;;;;;;;4.56;48.10;96645.00;4871059;29;19954;-73
2022/04/18 02:33:30;;;;;;;;;;;;;;;4.54;49.07;96646.19;4886906;29;19975;-74
2022/04/18 02:35:56;;;;;;;;;;;;;;;4.59;50.30;96639.44;4890225;29;19961;-73
2022/04/18 02:38:21;;;;;;;;;;;;;;;4.61;48.60;96619.31;4883412;29;19961;-71
2022/04/18 02:40:47;;;;;;;;;;;;;;;4.61;48.45;96624.50;4890564;29;20422;-71
2022/04/18 02:43:13;;;;;;;;;;;;;;;4.60;48.10;96622.06;4889096;29;20013;-71
2022/04/18 02:45:39;;;;;;;;;;;;;;;4.55;48.20;96622.59;4885569;29;19951;-71
2022/04/18 02:48:05;;;;;;;;;;;;;;;4.52;48.29;96622.97;4889171;29;19982;-73
2022/04/18 02:50:31;;;;;;;;;;;;;;;4.50;48.30;96614.53;4894180;29;20326;-72
2022/04/18 02:52:57;;;;;;;;;;;;;;;4.48;48.68;96624.28;4893140;29;19952;-71
2022/04/18 02:55:25;;;;;;;;;;;;;;;4.47;49.06;96617.47;4891532;29;19948;-71
2022/04/18 02:57:51;;;;;;;;;;;;;;;4.43;49.24;96622.22;4893904;29;19953;-72
2022/04/18 03:00:17;;;;;;;;;;;;;;;4.40;48.41;96616.56;4893482;29;19993;-72
2022/04/18 03:02:43;;;;;;;;;;;;;;;4.34;47.90;96612.06;4892535;29;19961;-72
2022/04/18 03:05:10;;;;;;;;;;;;;;;4.27;49.27;96615.38;4893505;29;20394;-72
2022/04/18 03:07:44;;;;;;;;;;;;;;;4.22;47.88;96612.50;4892593;29;20357;-71
2022/04/18 03:10:10;;;;;;;;;;;;;;;4.14;48.86;96606.56;4874222;29;19972;-72
2022/04/18 03:12:36;;;;;;;;;;;;;;;4.12;49.03;96619.69;4886101;29;20004;-71
2022/04/18 03:15:02;;;;;;;;;;;;;;;4.11;49.28;96618.06;4889659;29;20012;-74
2022/04/18 03:17:28;;;;;;;;;;;;;;;4.13;49.51;96621.28;4893196;29;19950;-71
2022/04/18 03:19:54;;;;;;;;;;;;;;;4.17;49.58;96616.56;4891932;29;19949;-72
2022/04/18 03:22:19;;;;;;;;;;;;;;;4.21;49.19;96615.25;4889671;29;19955;-71
2022/04/18 03:24:45;;;;;;;;;;;;;;;4.24;49.84;96618.31;4890168;29;19955;-71
2022/04/18 03:27:12;;;;;;;;;;;;;;;4.28;49.81;96616.16;4895417;29;19955;-72
2022/04/18 03:29:38;;;;;;;;;;;;;;;4.30;50.12;96616.78;4889873;29;19960;-72
2022/04/18 03:32:04;;;;;;;;;;;;;;;4.30;49.02;96598.63;4891494;29;20546;-71
2022/04/18 03:34:30;;;;;;;;;;;;;;;4.30;49.85;96616.78;4894982;29;19963;-71
2022/04/18 03:39:54;;;;;;;;;;;;;;;4.29;50.61;96611.81;4891785;29;19955;-71
2022/04/18 03:42:29;;;;;;;;;;;;;;;4.27;48.96;96610.16;4890957;29;19970;-71
2022/04/18 03:45:02;;;;;;;;;;;;;;;4.24;49.82;96610.53;4892542;29;19957;-72
2022/04/18 03:47:29;;;;;;;;;;;;;;;4.22;51.15;96606.47;4894616;29;19957;-72
2022/04/18 03:49:55;;;;;;;;;;;;;;;4.23;50.03;96610.69;4887588;29;19959;-71
2022/04/18 03:52:23;;;;;;;;;;;;;;;4.23;50.11;96603.72;4888057;29;19957;-73
2022/04/18 03:54:49;;;;;;;;;;;;;;;4.25;49.57;96598.34;4899156;29;19951;-71
2022/04/18 03:57:14;;;;;;;;;;;;;;;4.24;49.46;96594.13;4891144;29;20031;-71
2022/04/18 03:59:41;;;;;;;;;;;;;;;4.23;50.35;96606.31;4886233;29;19963;-71
2022/04/18 04:02:07;;;;;;;;;;;;;;;4.22;49.85;96598.69;4894728;29;19978;-72
2022/04/18 04:04:32;;;;;;;;;;;;;;;4.20;49.96;96601.47;4875219;29;19955;-72
2022/04/18 04:06:58;;;;;;;;;;;;;;;4.17;50.37;96601.00;4890046;29;19987;-72
2022/04/18 04:09:24;;;;;;;;;;;;;;;4.17;50.62;96601.81;4889813;29;20003;-72
2022/04/18 04:11:51;;;;;;;;;;;;;;;4.16;49.61;96596.78;4891330;29;20314;-71
2022/04/18 04:14:18;;;;;;;;;;;;;;;4.14;50.65;96596.97;4890683;29;19962;-71
2022/04/18 04:16:44;;;;;;;;;;;;;;;4.15;50.12;96600.38;4883325;29;19970;-72
2022/04/18 04:19:09;;;;;;;;;;;;;;;4.14;50.40;96604.75;4876087;29;20588;-71
2022/04/18 04:21:35;;;;;;;;;;;;;;;4.12;50.60;96608.53;4892447;29;19996;-71
2022/04/18 04:24:01;;;;;;;;;;;;;;;4.06;50.56;96613.41;4885361;29;19961;-71
2022/04/18 04:26:28;;;;;;;;;;;;;;;4.02;50.74;96614.72;4894933;29;19953;-72
2022/04/18 04:28:54;;;;;;;;;;;;;;;3.97;51.16;96611.84;4889164;29;19952;-71
2022/04/18 04:31:19;;;;;;;;;;;;;;;3.92;50.92;96611.53;4882537;29;19965;-72
2022/04/18 04:33:45;;;;;;;;;;;;;;;3.86;51.99;96614.81;4884822;29;20016;-71
2022/04/18 04:36:12;;;;;;;;;;;;;;;3.81;52.04;96619.72;4890819;29;19964;-71
2022/04/18 04:38:38;;;;;;;;;;;;;;;3.76;51.55;96609.03;4892401;29;20413;-72
2022/04/18 04:41:04;;;;;;;;;;;;;;;3.71;52.03;96606.97;4886474;29;20064;-71
2022/04/18 04:43:30;;;;;;;;;;;;;;;3.70;51.86;96620.91;4890581;29;20054;-71
2022/04/18 04:45:56;;;;;;;;;;;;;;;3.66;52.40;96610.06;4891730;29;20045;-72
2022/04/18 04:48:22;;;;;;;;;;;;;;;3.61;52.31;96612.38;4892144;29;20439;-72
2022/04/18 04:50:48;;;;;;;;;;;;;;;3.57;52.19;96618.03;4887444;29;19953;-71
2022/04/18 04:53:14;;;;;;;;;;;;;;;3.55;51.97;96618.25;4890637;29;19956;-71
2022/04/18 04:55:41;;;;;;;;;;;;;;;3.52;52.97;96617.75;4888323;29;20404;-71
2022/04/18 04:58:09;;;;;;;;;;;;;;;3.48;52.41;96606.91;4892972;29;19953;-71
2022/04/18 05:00:35;;;;;;;;;;;;;;;3.46;52.84;96608.88;4895735;29;20375;-71
2022/04/18 05:03:01;;;;;;;;;;;;;;;3.43;51.55;96593.66;4889412;29;19964;-71
2022/04/18 05:05:27;;;;;;;;;;;;;;;3.63;52.69;96596.63;4873990;29;19955;-72
2022/04/18 05:07:55;;;;;;;;;;;;;;;4.20;52.44;96590.25;4889917;29;19977;-72
2022/04/18 05:10:21;;;;;;;;;;;;;;;4.91;51.19;96577.78;4889523;29;19967;-72
2022/04/18 05:12:47;;;;;;;;;;;;;;;5.65;49.89;96584.72;4892095;29;19976;-72
2022/04/18 05:15:13;;;;;;;;;;;;;;;6.33;48.62;96566.97;4896152;29;19960;-72
2022/04/18 05:17:38;;;;;;;;;;;;;;;6.97;47.51;96566.03;4885155;29;20382;-73
2022/04/18 05:20:05;;;;;;;;;;;;;;;7.55;46.20;96567.50;4873609;29;19961;-71
2022/04/18 05:22:31;;;;;;;;;;;;;;;8.04;44.80;96556.78;4890289;29;19970;-71
2022/04/18 05:24:57;;;;;;;;;;;;;;;8.46;44.07;96548.78;4891082;29;19995;-72
2022/04/18 05:27:26;;;;;;;;;;;;;;;8.88;43.37;96551.97;4887431;29;20340;-72
2022/04/18 05:29:52;;;;;;;;;;;;;;;9.31;42.45;96551.47;4888705;29;19959;-71
2022/04/18 05:32:18;;;;;;;;;;;;;;;9.68;41.99;96554.31;4884123;29;19984;-72
2022/04/18 05:34:44;;;;;;;;;;;;;;;10.05;41.37;96555.31;4890872;29;20370;-72
2022/04/18 05:37:10;;;;;;;;;;;;;;;10.40;40.84;96554.91;4891122;29;19971;-71
2022/04/18 05:39:36;;;;;;;;;;;;;;;10.69;40.08;96556.06;4889080;29;19959;-71
2022/04/18 05:42:03;;;;;;;;;;;;;;;10.91;39.11;96555.66;4889560;29;19975;-72
2022/04/18 05:44:31;;;;;;;;;;;;;;;10.97;38.51;96558.22;4885409;29;19948;-71
2022/04/18 05:46:57;;;;;;;;;;;;;;;10.96;38.51;96561.88;4885622;29;20416;-71
2022/04/18 05:49:23;;;;;;;;;;;;;;;11.16;38.21;96560.88;4883275;29;19946;-71
2022/04/18 05:51:49;;;;;;;;;;;;;;;11.51;37.95;96563.69;4891831;29;19986;-71
2022/04/18 05:54:15;;;;;;;;;;;;;;;11.86;37.49;96564.88;4890588;29;19951;-71
2022/04/18 05:56:41;;;;;;;;;;;;;;;12.17;37.64;96566.50;4885996;29;19961;-72
2022/04/18 05:59:07;;;;;;;;;;;;;;;12.45;36.99;96563.25;4891306;29;19954;-71
2022/04/18 06:01:33;;;;;;;;;;;;;;;12.72;36.96;96562.81;4888136;29;20032;-72
2022/04/18 06:03:59;;;;;;;;;;;;;;;12.92;35.91;96562.47;4892723;29;19951;-72
2022/04/18 06:06:25;;;;;;;;;;;;;;;12.90;36.66;96565.34;4887930;29;19964;-72
2022/04/18 06:08:51;;;;;;;;;;;;;;;12.80;34.81;96559.84;4891117;29;20007;-72
2022/04/18 06:11:16;;;;;;;;;;;;;;;12.72;36.14;96562.81;4892579;29;20110;-73
2022/04/18 06:13:42;;;;;;;;;;;;;;;12.64;35.86;96560.50;4885605;29;19952;-72
2022/04/18 06:16:08;;;;;;;;;;;;;;;12.63;34.68;96558.94;4887652;29;19960;-72
2022/04/18 06:18:34;;;;;;;;;;;;;;;12.71;36.38;96569.13;4888639;29;19960;-72
2022/04/18 06:21:00;;;;;;;;;;;;;;;12.81;35.91;96569.34;4889907;29;20322;-73
2022/04/18 06:23:26;;;;;;;;;;;;;;;13.04;35.66;96557.19;4890074;29;20366;-73
2022/04/18 06:25:52;;;;;;;;;;;;;;;13.17;35.65;96556.97;4893638;29;19967;-72
2022/04/18 06:28:21;;;;;;;;;;;;;;;13.26;35.24;96552.94;4893210;29;20055;-73
2022/04/18 06:30:47;;;;;;;;;;;;;;;13.38;35.05;96553.75;4888883;29;19968;-72
2022/04/18 06:33:13;;;;;;;;;;;;;;;13.47;34.81;96556.81;4892456;29;20036;-72
2022/04/18 06:35:41;;;;;;;;;;;;;;;13.56;35.41;96558.03;4893850;29;19953;-73
2022/04/18 06:38:07;;;;;;;;;;;;;;;13.79;34.81;96556.34;4895661;29;19956;-73
2022/04/18 06:40:33;;;;;;;;;;;;;;;13.98;34.28;96549.06;4896877;29;19961;-73
2022/04/18 06:42:59;;;;;;;;;;;;;;;14.09;34.47;96550.03;4890699;29;19971;-73
2022/04/18 06:45:26;;;;;;;;;;;;;;;14.17;35.00;96547.00;4892071;29;19955;-73
2022/04/18 06:47:52;;;;;;;;;;;;;;;14.32;33.97;96552.56;4896144;29;19964;-72
2022/04/18 06:50:18;;;;;;;;;;;;;;;14.37;33.93;96547.34;4892091;29;19961;-73
2022/04/18 06:52:46;;;;;;;;;;;;;;;14.43;33.54;96550.09;4888855;29;19959;-72
2022/04/18 06:55:12;;;;;;;;;;;;;;;14.47;33.83;96554.66;4890647;29;19960;-73
2022/04/18 06:57:38;;;;;;;;;;;;;;;14.54;34.00;96563.19;4890985;29;20035;-73
2022/04/18 07:00:05;;;;;;;;;;;;;;;14.39;32.66;96552.41;4897333;29;19957;-74
2022/04/18 07:02:31;;;;;;;;;;;;;;;14.12;33.87;96565.41;4893124;29;19974;-73
2022/04/18 07:04:57;;;;;;;;;;;;;;;13.73;33.89;96552.84;4887332;29;19952;-73
2022/04/18 07:07:23;;;;;;;;;;;;;;;13.71;33.94;96560.19;4891248;29;19982;-73
2022/04/18 07:09:49;;;;;;;;;;;;;;;13.67;33.88;96564.31;4891586;29;19961;-73
2022/04/18 07:12:19;;;;;;;;;;;;;;;13.55;34.31;96561.72;4892553;29;20024;-72
2022/04/18 07:14:44;;;;;;;;;;;;;;;13.53;34.07;96552.44;4894368;29;19963;-73
2022/04/18 07:17:10;;;;;;;;;;;;;;;13.71;34.46;96559.38;4886450;29;20010;-72
2022/04/18 07:19:36;;;;;;;;;;;;;;;13.83;33.99;96554.84;4890958;29;19955;-74
2022/04/18 07:22:02;;;;;;;;;;;;;;;13.77;33.58;96551.34;4892094;29;19982;-73
2022/04/18 07:24:28;;;;;;;;;;;;;;;13.80;33.29;96552.69;4890515;29;19961;-73
2022/04/18 07:26:54;;;;;;;;;;;;;;;13.81;34.47;96549.81;4880539;29;20002;-73
2022/04/18 07:29:20;;;;;;;;;;;;;;;14.02;33.95;96547.53;4894238;29;19960;-73
2022/04/18 07:31:45;;;;;;;;;;;;;;;14.16;31.92;96542.78;4886935;29;19972;-73
2022/04/18 07:34:11;;;;;;;;;;;;;;;14.15;33.14;96542.00;4893407;29;20035;-73
2022/04/18 07:36:37;;;;;;;;;;;;;;;14.15;33.46;96541.16;4895082;29;19949;-73
2022/04/18 07:39:03;;;;;;;;;;;;;;;13.95;32.95;96537.16;4892151;29;19963;-74
2022/04/18 07:41:29;;;;;;;;;;;;;;;13.96;33.36;96541.41;4885746;29;20002;-73
2022/04/18 07:43:56;;;;;;;;;;;;;;;14.07;33.46;96541.56;4898985;29;19954;-73
2022/04/18 07:46:23;;;;;;;;;;;;;;;13.98;32.31;96534.06;4890176;29;19968;-73
2022/04/18 07:48:49;;;;;;;;;;;;;;;13.92;32.81;96534.19;4872230;29;19962;-74
2022/04/18 07:54:04;;;;;;;;;;;;;;;14.13;32.17;96533.53;4882520;29;19982;-74
2022/04/18 07:56:30;;;;;;;;;;;;;;;14.26;31.32;96532.41;4890519;29;19956;-73
2022/04/18 07:58:56;;;;;;;;;;;;;;;14.40;31.36;96533.69;4891876;29;19951;-74
2022/04/18 08:01:22;;;;;;;;;;;;;;;14.57;33.35;96538.19;4894284;29;19971;-73
2022/04/18 08:03:48;;;;;;;;;;;;;;;14.74;32.87;96541.63;4892971;29;19948;-73
2022/04/18 08:06:14;;;;;;;;;;;;;;;14.70;30.29;96534.41;4891692;29;19958;-73
2022/04/18 08:08:40;;;;;;;;;;;;;;;14.56;31.61;96536.59;4888044;29;20451;-73
2022/04/18 08:11:11;;;;;;;;;;;;;;;14.58;31.94;96540.59;4888348;29;20298;-73
2022/04/18 08:13:38;;;;;;;;;;;;;;;14.73;32.81;96542.66;4889145;29;20010;-73
2022/04/18 08:16:04;;;;;;;;;;;;;;;14.65;31.98;96537.00;4893788;29;19956;-73
2022/04/18 08:18:30;;;;;;;;;;;;;;;14.87;32.09;96535.22;4874868;29;19957;-73
2022/04/18 08:20:56;;;;;;;;;;;;;;;15.09;32.30;96539.72;4887909;29;19953;-73
2022/04/18 08:23:22;;;;;;;;;;;;;;;15.21;30.60;96532.47;4890225;29;19982;-74
2022/04/18 08:25:48;;;;;;;;;;;;;;;15.26;31.17;96535.19;4894516;29;19959;-74
2022/04/18 08:28:14;;;;;;;;;;;;;;;15.48;31.56;96535.19;4884762;29;20018;-73
2022/04/18 08:30:40;;;;;;;;;;;;;;;15.67;31.11;96535.66;4890461;29;19951;-73
2022/04/18 08:33:06;;;;;;;;;;;;;;;15.77;30.66;96545.56;4890441;29;19981;-73
2022/04/18 08:35:32;;;;;;;;;;;;;;;15.66;31.01;96541.19;4893265;29;20001;-74
2022/04/18 08:37:59;;;;;;;;;;;;;;;15.71;30.88;96543.91;4888375;29;19954;-74
2022/04/18 08:40:25;;;;;;;;;;;;;;;15.57;30.59;96546.13;4887351;29;19955;-73
2022/04/18 08:42:54;;;;;;;;;;;;;;;15.40;31.23;96540.91;4892270;29;20448;-73
2022/04/18 08:45:23;;;;;;;;;;;;;;;15.06;31.16;96542.88;4897731;29;19962;-74
2022/04/18 08:53:23;;;;;;;;;;;;;;;15.52;30.66;96538.94;4890886;29;19964;-73
2022/04/18 08:55:49;;;;;;;;;;;;;;;15.72;31.43;96527.81;4893293;29;19989;-74
2022/04/18 08:58:15;;;;;;;;;;;;;;;15.97;30.13;96534.41;4892552;29;19958;-73
2022/04/18 09:00:41;;;;;;;;;;;;;;;16.05;29.72;96522.59;4893027;29;19964;-73
2022/04/18 09:03:07;;;;;;;;;;;;;;;15.89;30.41;96526.94;4889100;29;20450;-74
2022/04/18 09:05:37;;;;;;;;;;;;;;;15.71;30.53;96525.41;4892048;29;19959;-73
2022/04/18 09:08:05;;;;;;;;;;;;;;;15.61;30.46;96528.72;4891831;29;19979;-74
2022/04/18 09:10:31;;;;;;;;;;;;;;;15.78;29.26;96521.53;4886975;29;19960;-73
2022/04/18 09:13:07;;;;;;;;;;;;;;;15.95;29.73;96518.78;4885251;29;19960;-73
2022/04/18 09:15:37;;;;;;;;;;;;;;;16.10;29.17;96517.34;4891511;29;20444;-74
2022/04/18 09:18:08;;;;;;;;;;;;;;;16.10;29.75;96519.97;4887804;29;19956;-73
2022/04/18 09:20:44;;;;;;;;;;;;;;;16.04;29.13;96519.13;4886847;29;19960;-73
2022/04/18 09:23:23;;;;;;;;;;;;;;;15.80;28.36;96514.16;4886034;29;19976;-73
2022/04/18 09:26:10;;;;;;;;;;;;;;;15.60;30.47;96512.06;4886451;29;19950;-73
2022/04/18 09:28:38;;;;;;;;;;;;;;;15.71;30.10;96509.53;4889650;29;19963;-73
2022/04/18 09:31:05;;;;;;;;;;;;;;;15.45;29.23;96503.97;4885326;29;20354;-73
2022/04/18 09:33:41;;;;;;;;;;;;;;;15.33;27.94;96495.34;4886925;29;19961;-73
2022/04/18 09:36:17;;;;;;;;;;;;;;;15.35;29.41;96502.03;4864226;29;20311;-73
2022/04/18 09:38:47;;;;;;;;;;;;;;;15.37;29.98;96494.63;4892604;29;20304;-74
2022/04/18 09:41:15;;;;;;;;;;;;;;;15.40;30.52;96498.63;4891451;29;19964;-72
2022/04/18 09:43:40;;;;;;;;;;;;;;;15.49;30.73;96499.78;4887986;29;19956;-72
2022/04/18 09:46:07;;;;;;;;;;;;;;;15.68;32.67;96502.09;4888388;29;20312;-72
2022/04/18 09:48:33;;;;;;;;;;;;;;;15.76;28.64;96493.75;4893756;29;19962;-73
2022/04/18 09:50:59;;;;;;;;;;;;;;;15.63;27.75;96502.84;4888455;29;19955;-73
2022/04/18 09:53:26;;;;;;;;;;;;;;;15.49;29.88;96499.78;4883722;29;20351;-72
2022/04/18 09:55:56;;;;;;;;;;;;;;;15.51;29.49;96496.91;4890401;29;19955;-72
2022/04/18 09:58:23;;;;;;;;;;;;;;;15.69;30.57;96499.22;4888060;29;20292;-73
2022/04/18 10:00:49;;;;;;;;;;;;;;;15.90;29.62;96494.94;4892165;29;19956;-73
2022/04/18 10:03:16;;;;;;;;;;;;;;;16.09;28.37;96489.31;4879369;29;19980;-73
2022/04/18 10:05:42;;;;;;;;;;;;;;;16.18;28.93;96495.72;4892547;29;20429;-73
2022/04/18 10:08:08;;;;;;;;;;;;;;;16.11;27.73;96492.50;4881159;29;19978;-73
2022/04/18 10:10:34;;;;;;;;;;;;;;;16.24;28.71;96492.84;4887523;29;19975;-75
2022/04/18 10:13:02;;;;;;;;;;;;;;;16.18;26.91;96495.72;4892489;29;19973;-73
2022/04/18 10:15:28;;;;;;;;;;;;;;;16.07;28.86;96489.53;4893755;29;19965;-72
2022/04/18 10:17:55;;;;;;;;;;;;;;;15.94;28.28;96480.19;4886127;29;19955;-73
2022/04/18 10:20:37;;;;;;;;;;;;;;;15.98;28.41;96481.28;4889708;29;19961;-73
2022/04/18 10:23:05;;;;;;;;;;;;;;;16.00;29.38;96484.47;4891033;29;19965;-73
2022/04/18 10:25:39;;;;;;;;;;;;;;;16.00;28.93;96481.81;4892538;29;19950;-73
2022/04/18 10:28:10;;;;;;;;;;;;;;;16.23;30.19;96477.22;4889881;29;19959;-73
2022/04/18 10:30:40;;;;;;;;;;;;;;;16.57;29.47;96469.00;4880358;29;19965;-73
2022/04/18 10:33:08;;;;;;;;;;;;;;;16.79;27.45;96464.34;4892857;29;19964;-72
2022/04/18 10:35:34;;;;;;;;;;;;;;;16.72;27.62;96460.38;4885490;29;19962;-73
2022/04/18 10:38:01;;;;;;;;;;;;;;;16.55;28.24;96466.63;4888561;29;19963;-73
2022/04/18 10:40:37;;;;;;;;;;;;;;;16.39;27.96;96459.63;4888624;29;20401;-73
2022/04/18 10:43:03;;;;;;;;;;;;;;;16.34;28.69;96460.38;4887197;29;19973;-73
2022/04/18 10:45:29;;;;;;;;;;;;;;;16.41;29.48;96460.94;4887329;29;19959;-73
2022/04/18 10:47:55;;;;;;;;;;;;;;;16.67;29.80;96463.75;4893016;29;20047;-72
2022/04/18 10:50:22;;;;;;;;;;;;;;;16.90;28.87;96461.78;4888932;29;20469;-73
2022/04/18 10:53:07;;;;;;;;;;;;;;;17.00;29.97;96457.34;4889617;29;19947;-72
2022/04/18 10:55:32;;;;;;;;;;;;;;;17.16;28.13;96452.13;4882202;29;19950;-73
2022/04/18 10:58:12;;;;;;;;;;;;;;;17.08;28.80;96450.75;4894398;29;19958;-73
2022/04/18 11:00:48;;;;;;;;;;;;;;;17.14;29.10;96455.03;4891757;29;20413;-73
2022/04/18 11:03:14;;;;;;;;;;;;;;;17.07;27.70;96443.84;4888301;29;19982;-73
2022/04/18 11:05:40;;;;;;;;;;;;;;;17.08;28.38;96450.75;4887831;29;19979;-73
2022/04/18 11:08:22;;;;;;;;;;;;;;;17.13;27.59;96442.03;4885550;29;19988;-76
2022/04/18 11:10:48;;;;;;;;;;;;;;;17.26;30.62;96446.88;4898071;29;19967;-73
2022/04/18 11:13:14;;;;;;;;;;;;;;;17.58;30.01;96429.97;4890850;29;19960;-72
2022/04/18 11:15:40;;;;;;;;;;;;;;;17.81;30.06;96436.63;4887694;29;20402;-73
2022/04/18 11:18:09;;;;;;;;;;;;;;;17.88;28.20;96423.13;4896754;29;20035;-73
2022/04/18 11:20:36;;;;;;;;;;;;;;;17.79;28.07;96426.28;4895745;29;19959;-73
2022/04/18 11:23:20;;;;;;;;;;;;;;;17.79;27.07;96425.50;4890281;29;19977;-73
2022/04/18 11:25:50;;;;;;;;;;;;;;;17.96;28.89;96423.41;4891239;29;19953;-73
2022/04/18 11:28:16;;;;;;;;;;;;;;;18.06;27.53;96412.00;4891154;29;19957;-73
2022/04/18 11:30:42;;;;;;;;;;;;;;;18.09;27.97;96413.31;4896414;29;19961;-73
2022/04/18 11:33:07;;;;;;;;;;;;;;;18.28;28.17;96408.25;4888998;29;20020;-73
2022/04/18 11:35:34;;;;;;;;;;;;;;;17.98;27.08;96417.81;4890995;29;19967;-72
2022/04/18 11:38:06;;;;;;;;;;;;;;;17.75;27.58;96404.00;4894564;29;19960;-72
2022/04/18 11:40:36;;;;;;;;;;;;;;;17.96;29.58;96412.78;4874146;29;19955;-72
2022/04/18 11:43:08;;;;;;;;;;;;;;;17.80;25.87;96409.28;4896758;29;19973;-73
2022/04/18 11:45:34;;;;;;;;;;;;;;;17.64;26.99;96407.69;4891067;29;20297;-73
2022/04/18 11:48:02;;;;;;;;;;;;;;;17.76;28.65;96410.09;4887167;29;19997;-74
2022/04/18 11:50:29;;;;;;;;;;;;;;;17.50;26.60;96402.09;4899858;29;19962;-73
2022/04/18 11:53:02;;;;;;;;;;;;;;;17.37;25.33;96397.31;4890390;29;19960;-73
2022/04/18 11:55:28;;;;;;;;;;;;;;;17.36;26.38;96399.16;4892644;29;19958;-73
2022/04/18 11:57:54;;;;;;;;;;;;;;;17.27;25.50;96399.94;4895585;29;19964;-73
2022/04/18 12:08:39;;;;;;;;;;;;;;;18.16;27.18;96385.41;4890029;29;20345;-74
2022/04/18 12:11:04;;;;;;;;;;;;;;;18.36;25.06;96381.16;4889298;29;19959;-74
2022/04/18 12:13:31;;;;;;;;;;;;;;;18.36;26.60;96376.63;4885456;29;20047;-75
2022/04/18 12:15:59;;;;;;;;;;;;;;;18.33;26.82;96373.72;4894863;29;19958;-74
2022/04/18 12:18:25;;;;;;;;;;;;;;;18.50;26.24;96370.75;4891419;29;19958;-74
2022/04/18 12:20:51;;;;;;;;;;;;;;;18.68;26.46;96370.16;4885963;29;19956;-74
2022/04/18 12:23:21;;;;;;;;;;;;;;;18.79;25.76;96366.44;4890720;29;19985;-75
2022/04/18 12:25:48;;;;;;;;;;;;;;;18.51;25.30;96359.06;4894415;29;19956;-74
2022/04/18 12:28:15;;;;;;;;;;;;;;;18.29;25.55;96359.38;4892882;29;19966;-75
2022/04/18 12:30:41;;;;;;;;;;;;;;;17.91;24.58;96357.06;4886131;29;19961;-74
2022/04/18 12:33:11;;;;;;;;;;;;;;;17.98;26.11;96362.09;4891644;29;19959;-74
2022/04/18 12:35:38;;;;;;;;;;;;;;;18.24;26.37;96358.34;4872878;29;19949;-74
2022/04/18 12:38:05;;;;;;;;;;;;;;;18.64;26.75;96353.97;4888974;29;19947;-74
2022/04/18 12:40:35;;;;;;;;;;;;;;;18.90;25.81;96353.91;4883778;29;19962;-74
2022/04/18 12:43:11;;;;;;;;;;;;;;;19.01;25.34;96344.81;4894212;29;19967;-74
2022/04/18 12:45:44;;;;;;;;;;;;;;;18.89;25.79;96354.19;4891569;29;19955;-74
2022/04/18 12:48:10;;;;;;;;;;;;;;;19.01;24.96;96342.16;4889754;29;19952;-74
2022/04/18 12:50:37;;;;;;;;;;;;;;;18.94;26.12;96349.66;4893819;29;19957;-75
2022/04/18 12:53:03;;;;;;;;;;;;;;;19.17;26.24;96342.06;4893668;29;19960;-75
2022/04/18 12:55:30;;;;;;;;;;;;;;;19.47;27.42;96346.41;4892221;29;20027;-74
2022/04/18 12:57:56;;;;;;;;;;;;;;;19.68;25.86;96339.84;4892780;29;19965;-74
2022/04/18 13:00:22;;;;;;;;;;;;;;;19.74;25.23;96335.31;4877591;29;19960;-74
2022/04/18 13:02:56;;;;;;;;;;;;;;;19.71;24.97;96338.50;4889703;29;19978;-73
2022/04/18 13:05:29;;;;;;;;;;;;;;;19.65;25.39;96335.09;4888348;29;19957;-72
2022/04/18 13:08:02;;;;;;;;;;;;;;;19.67;25.26;96319.66;4889771;29;19991;-73
2022/04/18 13:10:29;;;;;;;;;;;;;;;19.43;23.52;96318.78;4876554;29;20427;-72
2022/04/18 13:13:02;;;;;;;;;;;;;;;18.78;24.19;96325.00;4884315;29;19961;-72
2022/04/18 13:15:28;;;;;;;;;;;;;;;18.32;24.87;96324.34;4896993;29;19955;-72